createdAt,value
2023-01-29T00:18:38.629Z,26.74
2023-01-29T00:19:38.608Z,26.15
2023-01-29T00:20:38.627Z,26.29
2023-01-29T00:21:38.631Z,29.06
2023-01-29T00:22:38.646Z,26.69
2023-01-29T00:23:38.618Z,27.17
2023-01-29T00:24:38.608Z,26.95
2023-01-29T00:25:38.613Z,25.83
2023-01-29T00:26:38.626Z,28.20
2023-01-29T00:27:38.629Z,28.33
2023-01-29T00:28:38.602Z,28.90
2023-01-29T00:29:38.635Z,26.80
2023-01-29T00:30:38.611Z,28.93
2023-01-29T00:31:38.687Z,29.09
2023-01-29T00:32:38.606Z,28.85
2023-01-29T00:33:38.695Z,27.00
2023-01-29T00:34:38.575Z,28.32
2023-01-29T00:35:38.576Z,28.39
2023-01-29T00:36:38.589Z,26.94
2023-01-29T00:37:38.574Z,28.92
2023-01-29T00:38:38.558Z,27.90
2023-01-29T00:39:47.375Z,26.59
2023-01-29T00:41:38.523Z,26.63
2023-01-29T00:42:38.575Z,25.28
2023-01-29T00:43:38.554Z,26.34
2023-01-29T00:44:38.519Z,25.30
2023-01-29T00:45:38.523Z,27.68
2023-01-29T00:46:38.600Z,26.90
2023-01-29T00:47:38.520Z,29.33
2023-01-29T00:48:38.493Z,29.97
2023-01-29T00:49:38.477Z,28.76
2023-01-29T00:50:38.480Z,26.91
2023-01-29T00:51:38.449Z,27.12
2023-01-29T00:52:38.467Z,26.74
2023-01-29T00:53:38.456Z,25.97
2023-01-29T00:54:38.446Z,28.14
2023-01-29T00:55:38.444Z,26.60
2023-01-29T00:56:38.449Z,28.84
2023-01-29T00:57:38.442Z,28.47
2023-01-29T00:58:38.451Z,29.04
2023-01-29T00:59:38.419Z,30.12
2023-01-29T01:00:38.455Z,27.68
2023-01-29T01:01:38.440Z,27.97
2023-01-29T01:02:38.390Z,29.12
2023-01-29T01:03:38.391Z,27.14
2023-01-29T01:04:38.372Z,29.51
2023-01-29T01:05:38.384Z,27.50
2023-01-29T01:06:38.391Z,28.96
2023-01-29T01:07:38.342Z,27.94
2023-01-29T01:28:38.208Z,28.52
2023-01-29T09:37:41.779Z,118.93
2023-01-29T09:38:41.843Z,109.75
2023-01-29T09:39:41.851Z,110.35
2023-01-29T09:40:41.914Z,106.09
2023-01-29T09:41:41.982Z,111.52
2023-01-29T09:42:42.089Z,109.79
2023-01-29T09:43:42.106Z,106.07
2023-01-29T09:44:42.166Z,105.66
2023-01-29T09:45:42.242Z,104.41
2023-01-29T09:46:42.241Z,110.51
2023-01-29T09:47:42.311Z,112.66
2023-01-29T09:48:42.355Z,108.00
2023-01-29T09:49:42.457Z,102.63
2023-01-29T09:50:42.466Z,106.09
2023-01-29T09:51:42.526Z,108.87
2023-01-29T09:52:42.595Z,113.36
2023-01-29T09:53:42.606Z,106.45
2023-01-29T09:54:42.695Z,107.43
2023-01-29T09:55:42.720Z,110.02
2023-01-29T09:56:42.751Z,109.26
2023-01-29T09:57:42.826Z,105.75
2023-01-29T09:58:42.867Z,108.45
2023-01-29T09:59:42.932Z,115.33
2023-01-29T10:00:42.966Z,116.91
2023-01-29T10:01:43.066Z,116.71
2023-01-29T10:02:43.027Z,116.19
2023-01-29T10:03:43.093Z,117.48
2023-01-29T10:04:43.197Z,115.60
2023-01-29T10:05:43.190Z,124.41
2023-01-29T10:06:43.234Z,123.72
2023-01-29T10:07:43.272Z,123.95
2023-01-29T10:11:43.395Z,127.42
2023-01-29T10:12:43.449Z,128.97
2023-01-29T10:13:43.476Z,122.56
2023-01-29T10:14:43.511Z,121.91
2023-01-29T10:15:43.555Z,126.31
2023-01-29T10:16:43.627Z,128.06
2023-01-29T10:17:43.588Z,127.42
2023-01-29T10:18:43.649Z,134.63
2023-01-29T10:19:43.657Z,135.22
2023-01-29T10:20:43.693Z,129.93
2023-01-29T10:21:43.706Z,127.89
2023-01-29T10:22:43.749Z,128.48
2023-01-29T10:23:43.751Z,122.85
2023-01-29T10:24:43.786Z,127.32
2023-01-29T10:25:43.844Z,130.74
2023-01-29T10:26:43.860Z,131.76
2023-01-29T10:27:43.838Z,131.78
2023-01-29T10:28:43.874Z,128.07
2023-01-29T10:29:43.931Z,124.22
2023-01-29T10:30:44.023Z,127.69
2023-01-29T10:31:44.070Z,132.92
2023-01-29T10:32:43.990Z,134.07
2023-01-29T10:33:49.430Z,127.95
2023-01-29T10:34:44.988Z,128.11
2023-01-29T10:35:43.978Z,124.53
2023-01-29T10:36:43.995Z,120.09
2023-01-29T10:37:43.981Z,128.24
2023-01-29T10:38:43.956Z,129.85
2023-01-29T10:39:43.969Z,131.07
2023-01-29T10:40:43.944Z,127.84
2023-01-29T10:41:43.945Z,130.54
2023-01-29T10:42:43.946Z,133.33
2023-01-29T10:43:43.941Z,126.73
2023-01-29T10:44:43.925Z,130.37
2023-01-29T10:45:43.932Z,127.15
2023-01-29T10:46:43.906Z,131.82
2023-01-29T10:47:43.921Z,129.09
2023-01-29T10:48:43.906Z,128.66
2023-01-29T10:49:43.879Z,130.15
2023-01-29T10:50:43.910Z,122.34
2023-01-29T10:51:43.877Z,126.15
2023-01-29T10:52:43.858Z,126.59
2023-01-29T10:53:43.890Z,122.53
2023-01-29T10:54:43.870Z,123.07
2023-01-29T10:55:43.855Z,127.63
2023-01-29T10:56:43.838Z,127.29
2023-01-29T10:57:43.847Z,122.51
2023-01-29T10:58:45.474Z,128.78
2023-01-29T10:59:43.823Z,126.20
2023-01-29T11:00:43.835Z,120.66
2023-01-29T11:01:43.828Z,117.06
2023-01-29T11:02:43.890Z,124.46
2023-01-29T11:03:43.851Z,125.43
2023-01-29T11:04:43.765Z,126.74
2023-01-29T11:05:43.811Z,121.56
2023-01-29T11:06:43.764Z,120.38
2023-01-29T11:07:43.767Z,120.14
2023-01-29T11:08:43.729Z,120.53
2023-01-29T11:09:43.760Z,118.93
2023-01-29T11:10:43.751Z,120.79
2023-01-29T11:11:43.740Z,113.69
2023-01-29T11:12:43.759Z,124.68
2023-01-29T11:13:43.717Z,119.24
2023-01-29T11:14:43.724Z,120.88
2023-01-29T11:15:43.730Z,115.89
2023-01-29T11:16:43.731Z,119.55
2023-01-29T11:17:43.757Z,117.87
2023-01-29T11:18:43.695Z,118.32
2023-01-29T11:19:43.668Z,114.73
2023-01-29T11:20:43.690Z,114.16
2023-01-29T11:21:43.669Z,112.27
2023-01-29T11:22:43.700Z,118.51
2023-01-29T11:23:43.644Z,117.23
2023-01-29T11:24:43.643Z,128.57
2023-01-29T11:25:43.654Z,122.47
2023-01-29T11:26:43.667Z,124.42
2023-01-29T11:27:43.632Z,126.74
2023-01-29T11:28:43.638Z,135.73
2023-01-29T11:29:43.633Z,141.91
2023-01-29T11:30:43.612Z,157.24
2023-01-29T11:31:43.694Z,207.36
2023-01-29T11:32:43.593Z,255.67
2023-01-29T11:33:43.612Z,279.04
2023-01-29T11:34:43.562Z,281.86
2023-01-29T11:35:44.491Z,254.00
2023-01-29T11:36:43.560Z,225.53
2023-01-29T16:45:52.055Z,25.62
2023-01-29T16:46:51.807Z,26.05
2023-01-29T16:47:51.935Z,28.37
2023-01-29T16:48:51.925Z,25.94
2023-01-29T16:49:51.980Z,27.99
2023-01-29T16:50:55.293Z,25.70
2023-01-29T16:51:52.008Z,27.24
2023-01-29T16:52:52.007Z,27.91
2023-01-29T16:53:51.985Z,26.16
2023-01-29T16:54:52.011Z,28.14
2023-01-29T16:55:51.965Z,25.70
2023-01-29T16:56:51.984Z,27.13
2023-01-29T16:57:51.948Z,26.41
2023-01-29T16:58:51.938Z,29.00
2023-01-29T16:59:51.952Z,25.97
2023-01-29T17:00:51.963Z,27.50
2023-01-29T17:01:51.901Z,27.87
2023-01-29T17:02:51.932Z,25.00
2023-01-29T17:03:51.938Z,25.00
2023-01-29T17:04:51.934Z,26.04
2023-01-29T17:05:51.943Z,25.00
2023-01-29T17:06:51.884Z,25.53
2023-01-29T17:07:51.886Z,27.86
2023-01-29T17:08:51.896Z,25.37
2023-01-29T17:12:51.842Z,30.45
2023-01-29T17:13:51.836Z,27.04
2023-01-29T17:14:51.827Z,29.44
2023-01-29T17:15:51.855Z,29.89
2023-01-29T17:16:51.847Z,27.21
2023-01-29T17:17:51.823Z,29.65
2023-01-29T17:18:51.816Z,26.34
2023-01-29T17:19:51.832Z,28.54
2023-01-29T17:20:51.836Z,30.33
2023-01-29T17:21:51.920Z,28.74
2023-01-29T17:22:51.984Z,30.36
2023-01-29T17:23:52.068Z,25.26
2023-01-29T17:24:52.110Z,28.93
2023-01-29T17:25:52.135Z,30.65
2023-01-29T17:26:52.213Z,30.65
2023-01-29T17:27:52.303Z,29.12
2023-01-29T17:28:52.344Z,29.36
2023-01-29T17:29:53.511Z,27.62
2023-01-29T17:31:05.289Z,27.25
2023-01-29T17:32:52.420Z,27.67
2023-01-29T17:33:52.431Z,27.53
2023-01-29T17:34:52.428Z,28.03
2023-01-29T17:35:52.392Z,29.70
2023-01-29T17:36:52.395Z,28.20
2023-01-29T17:37:52.397Z,26.40
2023-01-29T17:38:52.403Z,28.42
2023-01-29T21:25:01.721Z,27.75
2023-01-29T21:26:01.725Z,26.77
2023-01-29T21:27:01.743Z,29.50
2023-01-29T21:28:01.796Z,29.61
2023-01-29T21:29:01.799Z,29.84
2023-01-29T21:30:01.802Z,26.35
2023-01-29T21:31:01.870Z,27.84
2023-01-29T21:32:01.867Z,26.46
2023-01-29T21:33:01.855Z,29.44
2023-01-29T21:34:01.880Z,29.26
2023-01-29T21:35:01.893Z,27.46
2023-01-29T21:36:01.962Z,29.21
2023-01-29T21:37:01.941Z,26.79
2023-01-29T21:38:01.934Z,29.44
2023-01-29T21:39:02.004Z,27.29
2023-01-29T21:40:01.982Z,27.56
2023-01-29T21:41:02.024Z,29.63
2023-01-29T21:42:02.022Z,30.03
2023-01-29T21:43:02.068Z,29.83
2023-01-29T21:44:02.031Z,31.02
2023-01-29T21:45:02.069Z,30.31
2023-01-29T21:46:02.080Z,26.75
2023-01-29T21:47:02.109Z,29.95
2023-01-29T21:48:02.133Z,29.80
2023-01-29T21:49:02.116Z,29.36
2023-01-29T21:50:02.092Z,31.28
2023-01-29T21:51:02.264Z,30.67
2023-01-29T21:52:02.161Z,30.50
2023-01-29T21:53:02.145Z,30.08
2023-01-29T21:54:02.178Z,29.16
2023-01-29T21:55:02.131Z,29.47
2023-01-29T21:56:02.153Z,32.13
2023-01-29T21:57:02.178Z,32.85
2023-01-29T21:58:02.233Z,31.46
2023-01-29T21:59:02.198Z,30.48
2023-01-29T22:00:02.230Z,30.36
2023-01-29T22:01:36.127Z,32.16
2023-01-29T22:02:03.352Z,32.26
2023-01-29T22:03:02.273Z,32.27
2023-01-29T22:04:02.208Z,32.69
2023-01-29T22:05:17.716Z,31.21
2023-01-29T22:06:03.215Z,32.26
2023-01-29T22:07:02.181Z,31.79
2023-01-29T22:08:02.212Z,33.22
2023-01-29T22:09:02.195Z,32.55
2023-01-29T22:10:02.194Z,33.78
2023-01-29T22:11:02.162Z,33.21
2023-01-29T22:12:02.169Z,33.32
2023-01-29T22:13:02.120Z,32.81
2023-01-29T22:14:02.154Z,32.63
2023-01-29T22:15:02.130Z,31.52
2023-01-29T22:16:02.154Z,31.80
2023-01-29T22:17:02.198Z,31.92
2023-01-29T22:18:02.126Z,31.98
2023-01-29T22:19:02.151Z,29.66
2023-01-29T22:20:02.147Z,30.60
2023-01-29T22:21:02.158Z,26.39
2023-01-29T22:22:02.158Z,28.88
2023-01-29T22:23:02.200Z,32.67
2023-01-29T22:24:02.212Z,26.54
2023-01-29T22:25:02.219Z,27.98
2023-01-29T22:26:02.230Z,28.46
2023-01-29T22:27:02.187Z,27.98
2023-01-29T22:28:02.219Z,26.28
2023-01-29T22:29:02.208Z,26.95
2023-01-29T22:30:02.204Z,28.80
2023-01-29T22:31:02.221Z,29.99
2023-01-29T22:32:02.239Z,30.70
2023-01-29T22:33:02.235Z,26.48
2023-01-29T22:34:02.189Z,26.15
2023-01-29T22:35:02.231Z,28.99
2023-01-29T22:36:02.224Z,26.80
2023-01-29T22:37:02.212Z,30.16
2023-01-29T22:38:02.219Z,28.97
2023-01-29T22:39:02.273Z,29.45
2023-01-29T22:40:02.262Z,29.16
2023-01-29T22:41:02.264Z,25.98
2023-01-29T22:42:02.277Z,27.73
2023-01-29T22:43:02.285Z,28.03
2023-01-29T22:44:02.257Z,27.59
2023-01-29T22:45:02.263Z,27.93
2023-01-29T22:46:02.288Z,27.86
2023-01-29T22:47:02.241Z,25.58
2023-01-29T22:48:02.236Z,28.62
2023-01-29T22:49:02.259Z,32.94
2023-01-29T22:50:02.248Z,30.70
2023-01-29T22:51:02.265Z,30.20
2023-01-29T22:52:02.232Z,25.29
2023-01-29T22:53:02.249Z,30.37
2023-01-29T22:54:02.276Z,26.94
2023-01-29T22:55:02.304Z,29.14
2023-01-29T22:56:02.338Z,32.28
2023-01-29T22:57:02.299Z,29.08
2023-01-29T22:58:02.310Z,25.30
2023-01-29T22:59:02.324Z,29.65
2023-01-29T23:00:02.415Z,29.59
2023-01-29T23:01:02.352Z,30.08
2023-01-29T23:02:02.376Z,27.83
2023-01-29T23:03:02.352Z,29.37
2023-01-29T23:04:02.377Z,29.10
2023-01-29T23:05:02.358Z,27.44
2023-01-29T23:06:02.351Z,30.70
2023-01-29T23:07:02.365Z,30.82
2023-01-29T23:08:02.365Z,29.22
2023-01-29T23:09:02.372Z,30.06
2023-01-29T23:10:02.329Z,29.50
2023-01-29T23:11:02.349Z,26.87
2023-01-29T23:12:02.361Z,26.50
2023-01-29T23:13:02.365Z,26.28
2023-01-29T23:14:02.358Z,26.94
2023-01-29T23:15:02.393Z,28.16
2023-01-29T23:16:02.437Z,29.77
2023-01-29T23:17:02.415Z,30.36
2023-01-29T23:18:02.412Z,30.41
2023-01-29T23:19:02.394Z,29.70
2023-01-29T23:20:02.395Z,30.61
2023-01-29T23:21:02.467Z,28.69
2023-01-29T23:22:02.413Z,28.03
2023-01-29T23:23:02.408Z,29.28
2023-01-29T23:24:02.424Z,28.33
2023-01-29T23:25:02.411Z,29.04
2023-01-29T23:26:02.400Z,30.65
2023-01-29T23:27:02.396Z,29.10
2023-01-29T23:28:02.406Z,25.74
2023-01-29T23:29:02.411Z,30.24
2023-01-29T23:30:02.409Z,28.99
2023-01-29T23:31:02.570Z,30.78
2023-01-29T23:32:02.431Z,27.07
2023-01-29T23:33:02.388Z,29.31
2023-01-29T23:34:02.377Z,26.97
2023-01-29T23:35:02.372Z,25.87
2023-01-29T23:36:02.393Z,28.10
2023-01-29T23:37:02.391Z,28.78
2023-01-29T23:38:02.392Z,26.99
2023-01-29T23:39:02.413Z,26.39
2023-01-29T23:40:02.382Z,30.16
2023-01-29T23:41:02.469Z,30.31
2023-01-29T23:42:02.425Z,31.36
2023-01-29T23:43:02.403Z,31.05
2023-01-29T23:44:02.390Z,29.48
2023-01-29T23:45:02.363Z,30.09
2023-01-29T23:46:02.384Z,33.21
2023-01-29T23:47:02.376Z,31.05
2023-01-29T23:48:02.397Z,30.13
2023-01-29T23:49:02.385Z,27.42
2023-01-29T23:50:02.345Z,29.75
2023-01-29T23:51:02.379Z,30.56
2023-01-29T23:52:02.383Z,30.50
2023-01-29T23:53:02.341Z,32.20
2023-01-29T23:54:02.344Z,29.23
2023-01-29T23:55:02.337Z,31.57
2023-01-29T23:56:02.361Z,31.62
2023-01-29T23:57:02.320Z,29.37
2023-01-29T23:58:02.304Z,31.56
2023-01-29T23:59:02.325Z,31.30
